sensor_id;sensor_type;location;lat;lon;timestamp;P1;durP1;ratioP1;P2;durP2;ratioP2
25419;SDS011;13354;48.174;11.566;2024-02-23T00:01:24;0.25;;;0.25;;
25419;SDS011;13354;48.174;11.566;2024-02-23T00:03:50;0.20;;;0.20;;
25419;SDS011;13354;48.174;11.566;2024-02-23T00:06:15;0.30;;;0.30;;
25419;SDS011;13354;48.174;11.566;2024-02-23T00:08:40;0.30;;;0.30;;
25419;SDS011;13354;48.174;11.566;2024-02-23T00:11:06;0.25;;;0.25;;
25419;SDS011;13354;48.174;11.566;2024-02-23T00:13:32;0.68;;;0.30;;
25419;SDS011;13354;48.174;11.566;2024-02-23T00:15:57;0.63;;;0.30;;
25419;SDS011;13354;48.174;11.566;2024-02-23T00:18:22;0.30;;;0.30;;
25419;SDS011;13354;48.174;11.566;2024-02-23T00:20:48;0.30;;;0.30;;
25419;SDS011;13354;48.174;11.566;2024-02-23T00:23:13;0.20;;;0.20;;
25419;SDS011;13354;48.174;11.566;2024-02-23T00:25:39;0.20;;;0.20;;
25419;SDS011;13354;48.174;11.566;2024-02-23T00:28:04;0.20;;;0.20;;
25419;SDS011;13354;48.174;11.566;2024-02-23T00:30:30;0.30;;;0.30;;
25419;SDS011;13354;48.174;11.566;2024-02-23T00:32:55;0.32;;;0.30;;
25419;SDS011;13354;48.174;11.566;2024-02-23T00:35:21;0.65;;;0.28;;
25419;SDS011;13354;48.174;11.566;2024-02-23T00:37:46;0.30;;;0.30;;
25419;SDS011;13354;48.174;11.566;2024-02-23T00:40:11;0.20;;;0.20;;
25419;SDS011;13354;48.174;11.566;2024-02-23T00:42:37;0.32;;;0.32;;
25419;SDS011;13354;48.174;11.566;2024-02-23T00:45:03;0.40;;;0.30;;
25419;SDS011;13354;48.174;11.566;2024-02-23T00:47:28;0.68;;;0.40;;
25419;SDS011;13354;48.174;11.566;2024-02-23T00:49:54;0.10;;;0.10;;
25419;SDS011;13354;48.174;11.566;2024-02-23T00:52:19;0.90;;;0.20;;
25419;SDS011;13354;48.174;11.566;2024-02-23T00:54:44;0.20;;;0.20;;
25419;SDS011;13354;48.174;11.566;2024-02-23T00:57:10;0.20;;;0.20;;
25419;SDS011;13354;48.174;11.566;2024-02-23T00:59:36;0.40;;;0.40;;
25419;SDS011;13354;48.174;11.566;2024-02-23T01:02:01;0.90;;;0.38;;
25419;SDS011;13354;48.174;11.566;2024-02-23T01:04:26;0.13;;;0.13;;
25419;SDS011;13354;48.174;11.566;2024-02-23T01:06:52;1.10;;;0.30;;
25419;SDS011;13354;48.174;11.566;2024-02-23T01:09:17;0.57;;;0.20;;
25419;SDS011;13354;48.174;11.566;2024-02-23T01:11:46;0.40;;;0.40;;
25419;SDS011;13354;48.174;11.566;2024-02-23T01:14:11;0.43;;;0.20;;
25419;SDS011;13354;48.174;11.566;2024-02-23T01:16:37;0.30;;;0.30;;
25419;SDS011;13354;48.174;11.566;2024-02-23T01:19:02;0.30;;;0.20;;
25419;SDS011;13354;48.174;11.566;2024-02-23T01:21:28;0.30;;;0.30;;
25419;SDS011;13354;48.174;11.566;2024-02-23T01:23:53;0.20;;;0.20;;
25419;SDS011;13354;48.174;11.566;2024-02-23T01:26:19;0.30;;;0.30;;
25419;SDS011;13354;48.174;11.566;2024-02-23T01:28:44;0.77;;;0.40;;
25419;SDS011;13354;48.174;11.566;2024-02-23T01:31:10;0.45;;;0.40;;
25419;SDS011;13354;48.174;11.566;2024-02-23T01:33:37;0.68;;;0.38;;
25419;SDS011;13354;48.174;11.566;2024-02-23T01:36:04;0.28;;;0.28;;
25419;SDS011;13354;48.174;11.566;2024-02-23T01:38:35;0.43;;;0.40;;
25419;SDS011;13354;48.174;11.566;2024-02-23T01:41:01;0.25;;;0.25;;
25419;SDS011;13354;48.174;11.566;2024-02-23T01:43:26;0.60;;;0.30;;
25419;SDS011;13354;48.174;11.566;2024-02-23T01:45:52;0.20;;;0.20;;
25419;SDS011;13354;48.174;11.566;2024-02-23T01:48:18;0.20;;;0.20;;
25419;SDS011;13354;48.174;11.566;2024-02-23T01:50:44;0.28;;;0.28;;
25419;SDS011;13354;48.174;11.566;2024-02-23T01:53:10;0.20;;;0.20;;
25419;SDS011;13354;48.174;11.566;2024-02-23T01:55:37;0.52;;;0.20;;
25419;SDS011;13354;48.174;11.566;2024-02-23T01:58:06;0.30;;;0.30;;
25419;SDS011;13354;48.174;11.566;2024-02-23T02:00:33;0.40;;;0.38;;
25419;SDS011;13354;48.174;11.566;2024-02-23T02:02:59;0.20;;;0.20;;
25419;SDS011;13354;48.174;11.566;2024-02-23T02:05:25;0.20;;;0.20;;
25419;SDS011;13354;48.174;11.566;2024-02-23T02:07:50;0.22;;;0.22;;
25419;SDS011;13354;48.174;11.566;2024-02-23T02:10:19;0.20;;;0.20;;
25419;SDS011;13354;48.174;11.566;2024-02-23T02:12:45;0.25;;;0.20;;
25419;SDS011;13354;48.174;11.566;2024-02-23T02:15:10;0.10;;;0.10;;
25419;SDS011;13354;48.174;11.566;2024-02-23T02:17:36;0.20;;;0.20;;
25419;SDS011;13354;48.174;11.566;2024-02-23T02:20:02;0.20;;;0.20;;
25419;SDS011;13354;48.174;11.566;2024-02-23T02:22:31;0.30;;;0.30;;
25419;SDS011;13354;48.174;11.566;2024-02-23T02:24:57;0.43;;;0.20;;
25419;SDS011;13354;48.174;11.566;2024-02-23T02:27:22;0.20;;;0.20;;
25419;SDS011;13354;48.174;11.566;2024-02-23T02:29:49;1.00;;;0.25;;
25419;SDS011;13354;48.174;11.566;2024-02-23T02:32:15;0.30;;;0.30;;
25419;SDS011;13354;48.174;11.566;2024-02-23T02:34:40;0.63;;;0.20;;
25419;SDS011;13354;48.174;11.566;2024-02-23T02:37:06;0.22;;;0.22;;
25419;SDS011;13354;48.174;11.566;2024-02-23T02:39:31;0.20;;;0.20;;
25419;SDS011;13354;48.174;11.566;2024-02-23T02:41:57;0.20;;;0.20;;
25419;SDS011;13354;48.174;11.566;2024-02-23T02:44:22;0.20;;;0.20;;
25419;SDS011;13354;48.174;11.566;2024-02-23T02:46:47;0.85;;;0.20;;
25419;SDS011;13354;48.174;11.566;2024-02-23T02:49:13;0.20;;;0.20;;
25419;SDS011;13354;48.174;11.566;2024-02-23T02:51:38;0.30;;;0.28;;
25419;SDS011;13354;48.174;11.566;2024-02-23T02:54:04;0.20;;;0.20;;
25419;SDS011;13354;48.174;11.566;2024-02-23T02:56:29;0.20;;;0.20;;
25419;SDS011;13354;48.174;11.566;2024-02-23T02:58:55;0.20;;;0.20;;
25419;SDS011;13354;48.174;11.566;2024-02-23T03:01:20;0.22;;;0.22;;
25419;SDS011;13354;48.174;11.566;2024-02-23T03:03:46;0.35;;;0.20;;
25419;SDS011;13354;48.174;11.566;2024-02-23T03:06:12;0.20;;;0.20;;
25419;SDS011;13354;48.174;11.566;2024-02-23T03:08:37;0.30;;;0.30;;
25419;SDS011;13354;48.174;11.566;2024-02-23T03:11:02;0.57;;;0.25;;
25419;SDS011;13354;48.174;11.566;2024-02-23T03:13:28;0.30;;;0.30;;
25419;SDS011;13354;48.174;11.566;2024-02-23T03:15:53;0.30;;;0.30;;
25419;SDS011;13354;48.174;11.566;2024-02-23T03:18:19;0.28;;;0.28;;
25419;SDS011;13354;48.174;11.566;2024-02-23T03:20:44;0.30;;;0.30;;
25419;SDS011;13354;48.174;11.566;2024-02-23T03:23:11;0.20;;;0.20;;
25419;SDS011;13354;48.174;11.566;2024-02-23T03:25:36;0.17;;;0.17;;
25419;SDS011;13354;48.174;11.566;2024-02-23T03:28:02;0.60;;;0.20;;
25419;SDS011;13354;48.174;11.566;2024-02-23T03:30:27;0.25;;;0.25;;
25419;SDS011;13354;48.174;11.566;2024-02-23T03:32:53;0.30;;;0.30;;
25419;SDS011;13354;48.174;11.566;2024-02-23T03:35:18;0.25;;;0.25;;
25419;SDS011;13354;48.174;11.566;2024-02-23T03:37:43;0.25;;;0.20;;
25419;SDS011;13354;48.174;11.566;2024-02-23T03:40:09;1.13;;;0.20;;
25419;SDS011;13354;48.174;11.566;2024-02-23T03:42:35;0.85;;;0.32;;
25419;SDS011;13354;48.174;11.566;2024-02-23T03:45:01;0.35;;;0.20;;
25419;SDS011;13354;48.174;11.566;2024-02-23T03:47:27;0.63;;;0.30;;
25419;SDS011;13354;48.174;11.566;2024-02-23T03:49:52;0.45;;;0.30;;
25419;SDS011;13354;48.174;11.566;2024-02-23T03:52:17;0.77;;;0.30;;
25419;SDS011;13354;48.174;11.566;2024-02-23T03:54:43;0.30;;;0.30;;
25419;SDS011;13354;48.174;11.566;2024-02-23T03:57:08;0.25;;;0.25;;
25419;SDS011;13354;48.174;11.566;2024-02-23T03:59:35;0.90;;;0.30;;
25419;SDS011;13354;48.174;11.566;2024-02-23T04:02:01;0.63;;;0.35;;
25419;SDS011;13354;48.174;11.566;2024-02-23T04:04:27;0.30;;;0.30;;
25419;SDS011;13354;48.174;11.566;2024-02-23T04:06:52;2.15;;;0.30;;
25419;SDS011;13354;48.174;11.566;2024-02-23T04:09:17;0.82;;;0.40;;
25419;SDS011;13354;48.174;11.566;2024-02-23T04:11:42;0.68;;;0.40;;
25419;SDS011;13354;48.174;11.566;2024-02-23T04:14:08;0.30;;;0.30;;
25419;SDS011;13354;48.174;11.566;2024-02-23T04:16:33;0.47;;;0.35;;
25419;SDS011;13354;48.174;11.566;2024-02-23T04:18:58;1.75;;;0.30;;
25419;SDS011;13354;48.174;11.566;2024-02-23T04:21:24;0.68;;;0.50;;
25419;SDS011;13354;48.174;11.566;2024-02-23T04:23:50;1.45;;;0.40;;
25419;SDS011;13354;48.174;11.566;2024-02-23T04:26:16;0.30;;;0.30;;
25419;SDS011;13354;48.174;11.566;2024-02-23T04:28:42;0.30;;;0.30;;
25419;SDS011;13354;48.174;11.566;2024-02-23T04:31:07;1.08;;;0.38;;
25419;SDS011;13354;48.174;11.566;2024-02-23T04:33:34;4.13;;;0.40;;
25419;SDS011;13354;48.174;11.566;2024-02-23T04:36:00;0.85;;;0.50;;
25419;SDS011;13354;48.174;11.566;2024-02-23T04:38:26;0.73;;;0.30;;
25419;SDS011;13354;48.174;11.566;2024-02-23T04:40:51;0.43;;;0.40;;
25419;SDS011;13354;48.174;11.566;2024-02-23T04:43:16;0.50;;;0.30;;
25419;SDS011;13354;48.174;11.566;2024-02-23T04:45:42;1.25;;;0.47;;
25419;SDS011;13354;48.174;11.566;2024-02-23T04:48:07;0.20;;;0.20;;
25419;SDS011;13354;48.174;11.566;2024-02-23T04:50:33;1.42;;;0.30;;
25419;SDS011;13354;48.174;11.566;2024-02-23T04:52:58;0.30;;;0.30;;
25419;SDS011;13354;48.174;11.566;2024-02-23T04:55:23;1.52;;;0.40;;
25419;SDS011;13354;48.174;11.566;2024-02-23T04:57:48;1.23;;;0.40;;
25419;SDS011;13354;48.174;11.566;2024-02-23T05:00:14;0.30;;;0.30;;
25419;SDS011;13354;48.174;11.566;2024-02-23T05:02:39;0.65;;;0.30;;
25419;SDS011;13354;48.174;11.566;2024-02-23T05:05:05;0.30;;;0.30;;
25419;SDS011;13354;48.174;11.566;2024-02-23T05:07:31;0.40;;;0.30;;
25419;SDS011;13354;48.174;11.566;2024-02-23T05:09:57;0.10;;;0.10;;
25419;SDS011;13354;48.174;11.566;2024-02-23T05:12:23;0.40;;;0.30;;
25419;SDS011;13354;48.174;11.566;2024-02-23T05:14:48;0.30;;;0.30;;
25419;SDS011;13354;48.174;11.566;2024-02-23T05:17:13;0.73;;;0.30;;
25419;SDS011;13354;48.174;11.566;2024-02-23T05:19:39;0.30;;;0.30;;
25419;SDS011;13354;48.174;11.566;2024-02-23T05:22:04;0.30;;;0.30;;
25419;SDS011;13354;48.174;11.566;2024-02-23T05:24:29;0.40;;;0.40;;
25419;SDS011;13354;48.174;11.566;2024-02-23T05:26:55;0.30;;;0.30;;
25419;SDS011;13354;48.174;11.566;2024-02-23T05:29:22;0.35;;;0.25;;
25419;SDS011;13354;48.174;11.566;2024-02-23T05:31:49;0.30;;;0.30;;
25419;SDS011;13354;48.174;11.566;2024-02-23T05:34:16;1.58;;;0.30;;
25419;SDS011;13354;48.174;11.566;2024-02-23T05:36:42;0.35;;;0.35;;
25419;SDS011;13354;48.174;11.566;2024-02-23T05:39:08;0.77;;;0.43;;
25419;SDS011;13354;48.174;11.566;2024-02-23T05:41:34;1.33;;;0.40;;
25419;SDS011;13354;48.174;11.566;2024-02-23T05:44:03;0.60;;;0.40;;
25419;SDS011;13354;48.174;11.566;2024-02-23T05:46:30;0.52;;;0.38;;
25419;SDS011;13354;48.174;11.566;2024-02-23T05:48:57;0.60;;;0.40;;
25419;SDS011;13354;48.174;11.566;2024-02-23T05:51:22;0.40;;;0.40;;
25419;SDS011;13354;48.174;11.566;2024-02-23T05:53:47;0.30;;;0.30;;
25419;SDS011;13354;48.174;11.566;2024-02-23T05:56:13;0.73;;;0.45;;
25419;SDS011;13354;48.174;11.566;2024-02-23T05:58:38;0.30;;;0.30;;
25419;SDS011;13354;48.174;11.566;2024-02-23T06:01:04;0.60;;;0.40;;
25419;SDS011;13354;48.174;11.566;2024-02-23T06:03:30;1.27;;;0.50;;
25419;SDS011;13354;48.174;11.566;2024-02-23T06:05:55;1.45;;;0.50;;
25419;SDS011;13354;48.174;11.566;2024-02-23T06:08:21;0.55;;;0.50;;
25419;SDS011;13354;48.174;11.566;2024-02-23T06:10:46;1.75;;;0.47;;
25419;SDS011;13354;48.174;11.566;2024-02-23T06:13:11;1.10;;;0.60;;
25419;SDS011;13354;48.174;11.566;2024-02-23T06:15:37;0.47;;;0.47;;
25419;SDS011;13354;48.174;11.566;2024-02-23T06:18:03;0.82;;;0.40;;
25419;SDS011;13354;48.174;11.566;2024-02-23T06:20:29;0.85;;;0.57;;
25419;SDS011;13354;48.174;11.566;2024-02-23T06:22:54;1.00;;;0.40;;
25419;SDS011;13354;48.174;11.566;2024-02-23T06:25:20;2.88;;;0.47;;
25419;SDS011;13354;48.174;11.566;2024-02-23T06:27:46;0.43;;;0.32;;
25419;SDS011;13354;48.174;11.566;2024-02-23T06:30:11;1.67;;;0.55;;
25419;SDS011;13354;48.174;11.566;2024-02-23T06:32:37;0.82;;;0.50;;
25419;SDS011;13354;48.174;11.566;2024-02-23T06:35:02;2.35;;;0.52;;
25419;SDS011;13354;48.174;11.566;2024-02-23T06:37:28;0.60;;;0.47;;
25419;SDS011;13354;48.174;11.566;2024-02-23T06:39:54;1.08;;;0.73;;
25419;SDS011;13354;48.174;11.566;2024-02-23T06:42:22;0.57;;;0.50;;
25419;SDS011;13354;48.174;11.566;2024-02-23T06:44:48;1.05;;;0.50;;
25419;SDS011;13354;48.174;11.566;2024-02-23T06:47:14;1.42;;;0.40;;
25419;SDS011;13354;48.174;11.566;2024-02-23T06:49:43;1.13;;;0.52;;
25419;SDS011;13354;48.174;11.566;2024-02-23T06:52:09;0.50;;;0.40;;
25419;SDS011;13354;48.174;11.566;2024-02-23T06:54:37;0.30;;;0.30;;
25419;SDS011;13354;48.174;11.566;2024-02-23T06:57:02;1.15;;;0.50;;
25419;SDS011;13354;48.174;11.566;2024-02-23T06:59:28;0.55;;;0.38;;
25419;SDS011;13354;48.174;11.566;2024-02-23T07:01:54;0.30;;;0.30;;
25419;SDS011;13354;48.174;11.566;2024-02-23T07:04:20;0.65;;;0.40;;
25419;SDS011;13354;48.174;11.566;2024-02-23T07:06:45;0.30;;;0.30;;
25419;SDS011;13354;48.174;11.566;2024-02-23T07:09:11;0.57;;;0.40;;
25419;SDS011;13354;48.174;11.566;2024-02-23T07:11:37;0.80;;;0.50;;
25419;SDS011;13354;48.174;11.566;2024-02-23T07:14:04;1.30;;;0.50;;
25419;SDS011;13354;48.174;11.566;2024-02-23T07:16:30;1.50;;;0.60;;
25419;SDS011;13354;48.174;11.566;2024-02-23T07:18:55;0.55;;;0.55;;
25419;SDS011;13354;48.174;11.566;2024-02-23T07:21:21;0.68;;;0.50;;
25419;SDS011;13354;48.174;11.566;2024-02-23T07:23:47;2.25;;;0.55;;
25419;SDS011;13354;48.174;11.566;2024-02-23T07:26:12;2.08;;;0.70;;
25419;SDS011;13354;48.174;11.566;2024-02-23T07:28:37;1.55;;;0.75;;
25419;SDS011;13354;48.174;11.566;2024-02-23T07:31:03;2.58;;;0.75;;
25419;SDS011;13354;48.174;11.566;2024-02-23T07:33:28;3.25;;;0.80;;
25419;SDS011;13354;48.174;11.566;2024-02-23T07:35:54;1.02;;;0.70;;
25419;SDS011;13354;48.174;11.566;2024-02-23T07:38:19;2.17;;;0.80;;
25419;SDS011;13354;48.174;11.566;2024-02-23T07:40:44;0.73;;;0.50;;
25419;SDS011;13354;48.174;11.566;2024-02-23T07:43:10;1.52;;;0.70;;
25419;SDS011;13354;48.174;11.566;2024-02-23T07:45:38;1.02;;;0.45;;
25419;SDS011;13354;48.174;11.566;2024-02-23T07:48:04;1.95;;;0.60;;
25419;SDS011;13354;48.174;11.566;2024-02-23T07:50:29;2.40;;;0.77;;
25419;SDS011;13354;48.174;11.566;2024-02-23T07:52:55;0.95;;;0.70;;
25419;SDS011;13354;48.174;11.566;2024-02-23T07:55:20;1.85;;;0.73;;
25419;SDS011;13354;48.174;11.566;2024-02-23T07:57:47;1.50;;;0.68;;
25419;SDS011;13354;48.174;11.566;2024-02-23T08:00:12;1.23;;;0.70;;
25419;SDS011;13354;48.174;11.566;2024-02-23T08:05:06;1.02;;;0.43;;
25419;SDS011;13354;48.174;11.566;2024-02-23T08:07:32;0.85;;;0.50;;
25419;SDS011;13354;48.174;11.566;2024-02-23T08:09:57;1.75;;;0.73;;
25419;SDS011;13354;48.174;11.566;2024-02-23T08:12:23;1.58;;;0.50;;
25419;SDS011;13354;48.174;11.566;2024-02-23T08:14:48;2.25;;;0.50;;
25419;SDS011;13354;48.174;11.566;2024-02-23T08:17:15;1.15;;;0.60;;
25419;SDS011;13354;48.174;11.566;2024-02-23T08:19:41;1.52;;;0.70;;
25419;SDS011;13354;48.174;11.566;2024-02-23T08:22:06;1.52;;;0.47;;
25419;SDS011;13354;48.174;11.566;2024-02-23T08:24:31;1.80;;;0.57;;
25419;SDS011;13354;48.174;11.566;2024-02-23T08:26:57;2.03;;;0.80;;
25419;SDS011;13354;48.174;11.566;2024-02-23T08:29:22;2.05;;;0.70;;
25419;SDS011;13354;48.174;11.566;2024-02-23T08:31:48;2.47;;;0.50;;
25419;SDS011;13354;48.174;11.566;2024-02-23T08:34:13;0.95;;;0.60;;
25419;SDS011;13354;48.174;11.566;2024-02-23T08:36:39;2.65;;;0.60;;
25419;SDS011;13354;48.174;11.566;2024-02-23T08:39:04;1.00;;;0.68;;
25419;SDS011;13354;48.174;11.566;2024-02-23T08:41:29;2.15;;;0.75;;
25419;SDS011;13354;48.174;11.566;2024-02-23T08:43:54;2.15;;;0.50;;
25419;SDS011;13354;48.174;11.566;2024-02-23T08:46:20;3.75;;;0.70;;
25419;SDS011;13354;48.174;11.566;2024-02-23T08:48:46;1.23;;;0.80;;
25419;SDS011;13354;48.174;11.566;2024-02-23T08:51:12;2.17;;;0.60;;
25419;SDS011;13354;48.174;11.566;2024-02-23T08:53:37;1.58;;;0.75;;
25419;SDS011;13354;48.174;11.566;2024-02-23T08:56:03;1.33;;;0.65;;
25419;SDS011;13354;48.174;11.566;2024-02-23T08:58:29;1.65;;;0.70;;
25419;SDS011;13354;48.174;11.566;2024-02-23T09:00:54;2.30;;;0.70;;
25419;SDS011;13354;48.174;11.566;2024-02-23T09:03:20;1.30;;;0.70;;
25419;SDS011;13354;48.174;11.566;2024-02-23T09:05:46;1.92;;;0.85;;
25419;SDS011;13354;48.174;11.566;2024-02-23T09:08:13;2.72;;;0.80;;
25419;SDS011;13354;48.174;11.566;2024-02-23T09:10:39;1.90;;;0.80;;
25419;SDS011;13354;48.174;11.566;2024-02-23T09:13:04;2.53;;;1.00;;
25419;SDS011;13354;48.174;11.566;2024-02-23T09:15:29;1.33;;;0.70;;
25419;SDS011;13354;48.174;11.566;2024-02-23T09:17:55;3.08;;;0.82;;
25419;SDS011;13354;48.174;11.566;2024-02-23T09:20:20;1.88;;;0.60;;
25419;SDS011;13354;48.174;11.566;2024-02-23T09:22:45;2.55;;;0.85;;
25419;SDS011;13354;48.174;11.566;2024-02-23T09:25:11;4.75;;;1.00;;
25419;SDS011;13354;48.174;11.566;2024-02-23T09:27:36;1.33;;;0.60;;
25419;SDS011;13354;48.174;11.566;2024-02-23T09:30:08;3.38;;;2.28;;
25419;SDS011;13354;48.174;11.566;2024-02-23T09:32:42;3.20;;;0.95;;
25419;SDS011;13354;48.174;11.566;2024-02-23T09:35:09;1.75;;;0.68;;
25419;SDS011;13354;48.174;11.566;2024-02-23T09:37:35;2.75;;;0.73;;
25419;SDS011;13354;48.174;11.566;2024-02-23T09:40:00;1.77;;;0.60;;
25419;SDS011;13354;48.174;11.566;2024-02-23T09:42:26;2.55;;;0.68;;
25419;SDS011;13354;48.174;11.566;2024-02-23T09:44:57;1.67;;;0.65;;
25419;SDS011;13354;48.174;11.566;2024-02-23T09:47:26;0.52;;;0.50;;
25419;SDS011;13354;48.174;11.566;2024-02-23T09:49:52;1.70;;;0.70;;
25419;SDS011;13354;48.174;11.566;2024-02-23T09:52:18;2.30;;;0.70;;
25419;SDS011;13354;48.174;11.566;2024-02-23T09:54:45;1.42;;;0.60;;
25419;SDS011;13354;48.174;11.566;2024-02-23T09:57:10;3.83;;;1.30;;
25419;SDS011;13354;48.174;11.566;2024-02-23T09:59:36;1.15;;;0.73;;
25419;SDS011;13354;48.174;11.566;2024-02-23T10:02:08;2.50;;;0.60;;
25419;SDS011;13354;48.174;11.566;2024-02-23T10:04:37;3.63;;;0.80;;
25419;SDS011;13354;48.174;11.566;2024-02-23T10:07:04;1.30;;;0.77;;
25419;SDS011;13354;48.174;11.566;2024-02-23T10:09:30;2.95;;;0.80;;
25419;SDS011;13354;48.174;11.566;2024-02-23T10:11:56;1.67;;;0.68;;
25419;SDS011;13354;48.174;11.566;2024-02-23T10:14:22;1.83;;;0.80;;
25419;SDS011;13354;48.174;11.566;2024-02-23T10:16:47;1.90;;;0.60;;
25419;SDS011;13354;48.174;11.566;2024-02-23T10:19:17;6.30;;;0.80;;
25419;SDS011;13354;48.174;11.566;2024-02-23T10:21:43;1.67;;;0.70;;
25419;SDS011;13354;48.174;11.566;2024-02-23T10:24:10;4.10;;;0.55;;
25419;SDS011;13354;48.174;11.566;2024-02-23T10:26:35;1.23;;;0.43;;
25419;SDS011;13354;48.174;11.566;2024-02-23T10:29:00;1.55;;;0.47;;
25419;SDS011;13354;48.174;11.566;2024-02-23T10:31:26;0.50;;;0.35;;
25419;SDS011;13354;48.174;11.566;2024-02-23T10:33:52;2.00;;;0.65;;
25419;SDS011;13354;48.174;11.566;2024-02-23T10:36:19;2.63;;;0.60;;
25419;SDS011;13354;48.174;11.566;2024-02-23T10:38:47;1.13;;;0.40;;
25419;SDS011;13354;48.174;11.566;2024-02-23T10:41:17;2.97;;;0.90;;
25419;SDS011;13354;48.174;11.566;2024-02-23T10:43:46;3.88;;;0.70;;
25419;SDS011;13354;48.174;11.566;2024-02-23T10:46:13;0.95;;;0.50;;
25419;SDS011;13354;48.174;11.566;2024-02-23T10:48:43;0.75;;;0.43;;
25419;SDS011;13354;48.174;11.566;2024-02-23T10:51:10;1.30;;;0.63;;
25419;SDS011;13354;48.174;11.566;2024-02-23T10:53:37;2.25;;;0.63;;
25419;SDS011;13354;48.174;11.566;2024-02-23T10:56:04;0.75;;;0.50;;
25419;SDS011;13354;48.174;11.566;2024-02-23T10:58:31;0.50;;;0.50;;
25419;SDS011;13354;48.174;11.566;2024-02-23T11:01:01;2.47;;;0.90;;
25419;SDS011;13354;48.174;11.566;2024-02-23T11:03:29;2.15;;;0.80;;
25419;SDS011;13354;48.174;11.566;2024-02-23T11:05:56;1.80;;;0.80;;
25419;SDS011;13354;48.174;11.566;2024-02-23T11:08:21;2.65;;;1.02;;
25419;SDS011;13354;48.174;11.566;2024-02-23T11:10:50;2.13;;;0.70;;
25419;SDS011;13354;48.174;11.566;2024-02-23T11:13:17;2.92;;;0.75;;
25419;SDS011;13354;48.174;11.566;2024-02-23T11:15:42;2.97;;;0.70;;
25419;SDS011;13354;48.174;11.566;2024-02-23T11:18:20;1.27;;;0.70;;
25419;SDS011;13354;48.174;11.566;2024-02-23T11:21:00;2.15;;;0.88;;
25419;SDS011;13354;48.174;11.566;2024-02-23T11:23:42;2.72;;;0.90;;
25419;SDS011;13354;48.174;11.566;2024-02-23T11:26:11;1.70;;;0.88;;
25419;SDS011;13354;48.174;11.566;2024-02-23T11:28:50;1.33;;;0.70;;
25419;SDS011;13354;48.174;11.566;2024-02-23T11:31:20;1.33;;;0.90;;
25419;SDS011;13354;48.174;11.566;2024-02-23T11:33:50;2.67;;;1.10;;
25419;SDS011;13354;48.174;11.566;2024-02-23T11:36:23;6.07;;;1.23;;
25419;SDS011;13354;48.174;11.566;2024-02-23T11:38:50;2.03;;;0.80;;
25419;SDS011;13354;48.174;11.566;2024-02-23T11:41:18;3.17;;;0.85;;
25419;SDS011;13354;48.174;11.566;2024-02-23T11:43:46;0.85;;;0.70;;
25419;SDS011;13354;48.174;11.566;2024-02-23T11:46:12;0.82;;;0.70;;
25419;SDS011;13354;48.174;11.566;2024-02-23T11:48:37;1.90;;;0.90;;
25419;SDS011;13354;48.174;11.566;2024-02-23T11:51:03;0.95;;;0.95;;
25419;SDS011;13354;48.174;11.566;2024-02-23T11:53:28;1.95;;;0.65;;
25419;SDS011;13354;48.174;11.566;2024-02-23T11:55:54;0.70;;;0.50;;
25419;SDS011;13354;48.174;11.566;2024-02-23T11:58:20;1.15;;;0.57;;
25419;SDS011;13354;48.174;11.566;2024-02-23T12:00:45;0.90;;;0.43;;
25419;SDS011;13354;48.174;11.566;2024-02-23T12:03:11;1.73;;;0.60;;
25419;SDS011;13354;48.174;11.566;2024-02-23T12:05:36;0.95;;;0.60;;
25419;SDS011;13354;48.174;11.566;2024-02-23T12:08:02;2.03;;;0.68;;
25419;SDS011;13354;48.174;11.566;2024-02-23T12:10:28;1.70;;;0.47;;
25419;SDS011;13354;48.174;11.566;2024-02-23T12:12:55;1.92;;;0.60;;
25419;SDS011;13354;48.174;11.566;2024-02-23T12:15:20;0.75;;;0.47;;
25419;SDS011;13354;48.174;11.566;2024-02-23T12:17:49;0.40;;;0.30;;
25419;SDS011;13354;48.174;11.566;2024-02-23T12:20:15;2.30;;;0.40;;
25419;SDS011;13354;48.174;11.566;2024-02-23T12:22:41;2.38;;;0.50;;
25419;SDS011;13354;48.174;11.566;2024-02-23T12:25:06;2.58;;;0.50;;
25419;SDS011;13354;48.174;11.566;2024-02-23T12:27:32;0.88;;;0.45;;
25419;SDS011;13354;48.174;11.566;2024-02-23T12:29:57;1.83;;;0.70;;
25419;SDS011;13354;48.174;11.566;2024-02-23T12:32:24;1.92;;;0.55;;
25419;SDS011;13354;48.174;11.566;2024-02-23T12:34:49;0.80;;;0.45;;
25419;SDS011;13354;48.174;11.566;2024-02-23T12:37:15;1.33;;;0.60;;
25419;SDS011;13354;48.174;11.566;2024-02-23T12:39:42;1.58;;;0.55;;
25419;SDS011;13354;48.174;11.566;2024-02-23T12:42:08;0.38;;;0.38;;
25419;SDS011;13354;48.174;11.566;2024-02-23T12:44:33;0.73;;;0.60;;
25419;SDS011;13354;48.174;11.566;2024-02-23T12:46:59;1.02;;;0.40;;
25419;SDS011;13354;48.174;11.566;2024-02-23T12:49:24;0.57;;;0.55;;
25419;SDS011;13354;48.174;11.566;2024-02-23T12:51:49;0.50;;;0.45;;
25419;SDS011;13354;48.174;11.566;2024-02-23T12:54:15;1.85;;;0.60;;
25419;SDS011;13354;48.174;11.566;2024-02-23T12:56:40;1.27;;;0.60;;
25419;SDS011;13354;48.174;11.566;2024-02-23T12:59:06;1.95;;;1.55;;
25419;SDS011;13354;48.174;11.566;2024-02-23T13:01:32;3.13;;;0.60;;
25419;SDS011;13354;48.174;11.566;2024-02-23T13:04:01;3.50;;;0.70;;
25419;SDS011;13354;48.174;11.566;2024-02-23T13:06:27;1.63;;;0.60;;
25419;SDS011;13354;48.174;11.566;2024-02-23T13:08:52;0.80;;;0.60;;
25419;SDS011;13354;48.174;11.566;2024-02-23T13:11:17;1.35;;;0.60;;
25419;SDS011;13354;48.174;11.566;2024-02-23T13:13:43;1.38;;;0.50;;
25419;SDS011;13354;48.174;11.566;2024-02-23T13:16:08;1.17;;;0.50;;
25419;SDS011;13354;48.174;11.566;2024-02-23T13:18:34;0.43;;;0.40;;
25419;SDS011;13354;48.174;11.566;2024-02-23T13:20:59;1.55;;;0.70;;
25419;SDS011;13354;48.174;11.566;2024-02-23T13:23:25;2.25;;;0.60;;
25419;SDS011;13354;48.174;11.566;2024-02-23T13:25:50;0.50;;;0.50;;
25419;SDS011;13354;48.174;11.566;2024-02-23T13:28:16;0.95;;;0.60;;
25419;SDS011;13354;48.174;11.566;2024-02-23T13:30:41;3.03;;;0.70;;
25419;SDS011;13354;48.174;11.566;2024-02-23T13:33:07;2.42;;;0.80;;
25419;SDS011;13354;48.174;11.566;2024-02-23T13:35:35;1.10;;;0.57;;
25419;SDS011;13354;48.174;11.566;2024-02-23T13:38:00;1.92;;;0.60;;
25419;SDS011;13354;48.174;11.566;2024-02-23T13:40:28;1.13;;;0.77;;
25419;SDS011;13354;48.174;11.566;2024-02-23T13:42:54;1.13;;;0.52;;
25419;SDS011;13354;48.174;11.566;2024-02-23T13:45:19;2.05;;;0.60;;
25419;SDS011;13354;48.174;11.566;2024-02-23T13:47:55;0.75;;;0.75;;
25419;SDS011;13354;48.174;11.566;2024-02-23T13:50:24;2.10;;;0.50;;
25419;SDS011;13354;48.174;11.566;2024-02-23T13:52:50;0.40;;;0.40;;
25419;SDS011;13354;48.174;11.566;2024-02-23T13:55:16;0.57;;;0.30;;
25419;SDS011;13354;48.174;11.566;2024-02-23T13:57:41;0.63;;;0.50;;
25419;SDS011;13354;48.174;11.566;2024-02-23T14:00:06;0.38;;;0.38;;
25419;SDS011;13354;48.174;11.566;2024-02-23T14:02:37;3.10;;;0.60;;
25419;SDS011;13354;48.174;11.566;2024-02-23T14:05:05;0.47;;;0.35;;
25419;SDS011;13354;48.174;11.566;2024-02-23T14:07:32;0.73;;;0.40;;
25419;SDS011;13354;48.174;11.566;2024-02-23T14:09:58;0.93;;;0.40;;
25419;SDS011;13354;48.174;11.566;2024-02-23T14:12:23;1.75;;;0.50;;
25419;SDS011;13354;48.174;11.566;2024-02-23T14:14:49;0.95;;;0.40;;
25419;SDS011;13354;48.174;11.566;2024-02-23T14:17:15;1.02;;;0.65;;
25419;SDS011;13354;48.174;11.566;2024-02-23T14:19:40;2.20;;;0.70;;
25419;SDS011;13354;48.174;11.566;2024-02-23T14:22:05;0.82;;;0.45;;
25419;SDS011;13354;48.174;11.566;2024-02-23T14:24:31;0.60;;;0.40;;
25419;SDS011;13354;48.174;11.566;2024-02-23T14:26:57;1.75;;;0.50;;
25419;SDS011;13354;48.174;11.566;2024-02-23T14:29:22;0.60;;;0.50;;